sensor_id;sensor_type;location;lat;lon;timestamp;P1;durP1;ratioP1;P2;durP2;ratioP2
85188;SDS011;75559;49.132;8.922;2024-02-26T00:01:01;3.53;;;1.65;;
85188;SDS011;75559;49.132;8.922;2024-02-26T00:03:27;4.35;;;1.77;;
85188;SDS011;75559;49.132;8.922;2024-02-26T00:05:55;2.10;;;1.35;;
85188;SDS011;75559;49.132;8.922;2024-02-26T00:08:21;2.33;;;1.80;;
85188;SDS011;75559;49.132;8.922;2024-02-26T00:10:46;1.60;;;1.48;;
85188;SDS011;75559;49.132;8.922;2024-02-26T00:13:12;2.15;;;1.70;;
85188;SDS011;75559;49.132;8.922;2024-02-26T00:15:37;2.20;;;1.70;;
85188;SDS011;75559;49.132;8.922;2024-02-26T00:18:03;2.35;;;1.80;;
85188;SDS011;75559;49.132;8.922;2024-02-26T00:20:28;2.70;;;1.77;;
85188;SDS011;75559;49.132;8.922;2024-02-26T00:22:53;2.20;;;1.80;;
85188;SDS011;75559;49.132;8.922;2024-02-26T00:25:19;4.13;;;1.90;;
85188;SDS011;75559;49.132;8.922;2024-02-26T00:27:44;3.78;;;2.03;;
85188;SDS011;75559;49.132;8.922;2024-02-26T00:30:10;2.20;;;1.50;;
85188;SDS011;75559;49.132;8.922;2024-02-26T00:32:36;3.13;;;1.63;;
85188;SDS011;75559;49.132;8.922;2024-02-26T00:35:01;2.22;;;1.52;;
85188;SDS011;75559;49.132;8.922;2024-02-26T00:37:26;2.15;;;1.40;;
85188;SDS011;75559;49.132;8.922;2024-02-26T00:39:52;2.10;;;1.60;;
85188;SDS011;75559;49.132;8.922;2024-02-26T00:42:19;2.70;;;1.60;;
85188;SDS011;75559;49.132;8.922;2024-02-26T00:44:44;1.73;;;1.40;;
85188;SDS011;75559;49.132;8.922;2024-02-26T00:47:09;2.67;;;1.60;;
85188;SDS011;75559;49.132;8.922;2024-02-26T00:49:35;3.40;;;1.93;;
85188;SDS011;75559;49.132;8.922;2024-02-26T00:52:00;1.55;;;1.45;;
85188;SDS011;75559;49.132;8.922;2024-02-26T00:54:25;3.15;;;1.45;;
85188;SDS011;75559;49.132;8.922;2024-02-26T00:56:51;1.83;;;1.50;;
85188;SDS011;75559;49.132;8.922;2024-02-26T00:59:16;3.67;;;2.43;;
85188;SDS011;75559;49.132;8.922;2024-02-26T01:01:42;2.15;;;1.75;;
85188;SDS011;75559;49.132;8.922;2024-02-26T01:04:07;2.00;;;1.73;;
85188;SDS011;75559;49.132;8.922;2024-02-26T01:06:32;1.98;;;1.35;;
85188;SDS011;75559;49.132;8.922;2024-02-26T01:08:58;4.13;;;1.63;;
85188;SDS011;75559;49.132;8.922;2024-02-26T01:11:23;1.95;;;1.50;;
85188;SDS011;75559;49.132;8.922;2024-02-26T01:13:49;2.80;;;1.73;;
85188;SDS011;75559;49.132;8.922;2024-02-26T01:16:18;1.60;;;1.48;;
85188;SDS011;75559;49.132;8.922;2024-02-26T01:18:43;1.80;;;1.45;;
85188;SDS011;75559;49.132;8.922;2024-02-26T01:21:09;3.38;;;2.03;;
85188;SDS011;75559;49.132;8.922;2024-02-26T01:23:34;2.80;;;2.00;;
85188;SDS011;75559;49.132;8.922;2024-02-26T01:26:00;3.40;;;1.92;;
85188;SDS011;75559;49.132;8.922;2024-02-26T01:28:25;3.00;;;2.10;;
85188;SDS011;75559;49.132;8.922;2024-02-26T01:30:50;6.38;;;2.70;;
85188;SDS011;75559;49.132;8.922;2024-02-26T01:33:16;4.40;;;2.33;;
85188;SDS011;75559;49.132;8.922;2024-02-26T01:35:41;2.60;;;1.70;;
85188;SDS011;75559;49.132;8.922;2024-02-26T01:38:07;2.97;;;2.05;;
85188;SDS011;75559;49.132;8.922;2024-02-26T01:40:32;3.65;;;2.30;;
85188;SDS011;75559;49.132;8.922;2024-02-26T01:42:58;2.88;;;1.75;;
85188;SDS011;75559;49.132;8.922;2024-02-26T01:45:25;2.72;;;1.85;;
85188;SDS011;75559;49.132;8.922;2024-02-26T01:47:50;2.17;;;1.70;;
85188;SDS011;75559;49.132;8.922;2024-02-26T01:50:17;3.22;;;1.85;;
85188;SDS011;75559;49.132;8.922;2024-02-26T01:52:43;1.90;;;1.80;;
85188;SDS011;75559;49.132;8.922;2024-02-26T01:55:11;1.25;;;1.13;;
85188;SDS011;75559;49.132;8.922;2024-02-26T01:57:39;3.35;;;1.10;;
85188;SDS011;75559;49.132;8.922;2024-02-26T02:00:05;1.20;;;0.88;;
85188;SDS011;75559;49.132;8.922;2024-02-26T02:02:33;1.92;;;1.23;;
85188;SDS011;75559;49.132;8.922;2024-02-26T02:04:58;1.08;;;0.88;;
85188;SDS011;75559;49.132;8.922;2024-02-26T02:07:24;1.08;;;0.98;;
85188;SDS011;75559;49.132;8.922;2024-02-26T02:09:50;1.70;;;0.93;;
85188;SDS011;75559;49.132;8.922;2024-02-26T02:12:15;2.72;;;0.95;;
85188;SDS011;75559;49.132;8.922;2024-02-26T02:14:41;1.23;;;1.08;;
85188;SDS011;75559;49.132;8.922;2024-02-26T02:17:06;1.42;;;0.95;;
85188;SDS011;75559;49.132;8.922;2024-02-26T02:19:32;1.45;;;1.23;;
85188;SDS011;75559;49.132;8.922;2024-02-26T02:21:57;3.85;;;1.60;;
85188;SDS011;75559;49.132;8.922;2024-02-26T02:24:23;2.15;;;1.60;;
85188;SDS011;75559;49.132;8.922;2024-02-26T02:26:48;2.25;;;1.88;;
85188;SDS011;75559;49.132;8.922;2024-02-26T02:29:13;2.33;;;1.48;;
85188;SDS011;75559;49.132;8.922;2024-02-26T02:31:40;1.25;;;1.13;;
85188;SDS011;75559;49.132;8.922;2024-02-26T02:34:06;1.70;;;1.30;;
85188;SDS011;75559;49.132;8.922;2024-02-26T02:36:33;1.67;;;0.90;;
85188;SDS011;75559;49.132;8.922;2024-02-26T02:38:58;1.65;;;0.98;;
85188;SDS011;75559;49.132;8.922;2024-02-26T02:41:23;0.80;;;0.80;;
85188;SDS011;75559;49.132;8.922;2024-02-26T02:43:51;1.33;;;1.00;;
85188;SDS011;75559;49.132;8.922;2024-02-26T02:46:16;0.85;;;0.80;;
85188;SDS011;75559;49.132;8.922;2024-02-26T02:48:42;1.00;;;0.80;;
85188;SDS011;75559;49.132;8.922;2024-02-26T02:51:08;1.25;;;0.80;;
85188;SDS011;75559;49.132;8.922;2024-02-26T02:53:34;0.80;;;0.80;;
85188;SDS011;75559;49.132;8.922;2024-02-26T02:55:59;0.80;;;0.80;;
85188;SDS011;75559;49.132;8.922;2024-02-26T02:58:24;1.00;;;0.80;;
85188;SDS011;75559;49.132;8.922;2024-02-26T03:00:50;1.27;;;0.85;;
85188;SDS011;75559;49.132;8.922;2024-02-26T03:03:15;1.00;;;0.90;;
85188;SDS011;75559;49.132;8.922;2024-02-26T03:05:41;0.70;;;0.70;;
85188;SDS011;75559;49.132;8.922;2024-02-26T03:08:06;2.22;;;1.10;;
85188;SDS011;75559;49.132;8.922;2024-02-26T03:10:31;0.80;;;0.80;;
85188;SDS011;75559;49.132;8.922;2024-02-26T03:12:57;0.90;;;0.90;;
85188;SDS011;75559;49.132;8.922;2024-02-26T03:15:22;0.73;;;0.73;;
85188;SDS011;75559;49.132;8.922;2024-02-26T03:17:48;1.00;;;0.90;;
85188;SDS011;75559;49.132;8.922;2024-02-26T03:20:13;0.80;;;0.80;;
85188;SDS011;75559;49.132;8.922;2024-02-26T03:22:39;1.00;;;0.90;;
85188;SDS011;75559;49.132;8.922;2024-02-26T03:25:05;0.70;;;0.70;;
85188;SDS011;75559;49.132;8.922;2024-02-26T03:27:31;0.80;;;0.80;;
85188;SDS011;75559;49.132;8.922;2024-02-26T03:29:57;1.35;;;1.00;;
85188;SDS011;75559;49.132;8.922;2024-02-26T03:32:22;0.75;;;0.75;;
85188;SDS011;75559;49.132;8.922;2024-02-26T03:34:47;1.73;;;1.00;;
85188;SDS011;75559;49.132;8.922;2024-02-26T03:37:13;1.00;;;0.90;;
85188;SDS011;75559;49.132;8.922;2024-02-26T03:39:38;0.80;;;0.80;;
85188;SDS011;75559;49.132;8.922;2024-02-26T03:42:04;1.55;;;0.90;;
85188;SDS011;75559;49.132;8.922;2024-02-26T03:44:29;1.60;;;0.80;;
85188;SDS011;75559;49.132;8.922;2024-02-26T03:46:55;1.63;;;1.00;;
85188;SDS011;75559;49.132;8.922;2024-02-26T03:49:20;0.80;;;0.80;;
85188;SDS011;75559;49.132;8.922;2024-02-26T03:51:47;1.98;;;1.10;;
85188;SDS011;75559;49.132;8.922;2024-02-26T03:54:12;2.63;;;1.10;;
85188;SDS011;75559;49.132;8.922;2024-02-26T03:56:38;1.90;;;0.90;;
85188;SDS011;75559;49.132;8.922;2024-02-26T03:59:04;0.90;;;0.90;;
85188;SDS011;75559;49.132;8.922;2024-02-26T04:01:29;1.25;;;0.90;;
85188;SDS011;75559;49.132;8.922;2024-02-26T04:03:55;1.95;;;1.20;;
85188;SDS011;75559;49.132;8.922;2024-02-26T04:06:20;1.02;;;0.90;;
85188;SDS011;75559;49.132;8.922;2024-02-26T04:08:48;1.15;;;0.82;;
85188;SDS011;75559;49.132;8.922;2024-02-26T04:11:14;3.05;;;0.90;;
85188;SDS011;75559;49.132;8.922;2024-02-26T04:13:43;2.33;;;1.35;;
85188;SDS011;75559;49.132;8.922;2024-02-26T04:16:11;2.75;;;1.35;;
85188;SDS011;75559;49.132;8.922;2024-02-26T04:18:37;1.17;;;1.00;;
85188;SDS011;75559;49.132;8.922;2024-02-26T04:21:03;3.05;;;1.10;;
85188;SDS011;75559;49.132;8.922;2024-02-26T04:23:30;0.95;;;0.90;;
85188;SDS011;75559;49.132;8.922;2024-02-26T04:25:55;0.93;;;0.88;;
85188;SDS011;75559;49.132;8.922;2024-02-26T04:28:21;1.48;;;1.05;;
85188;SDS011;75559;49.132;8.922;2024-02-26T04:30:47;1.53;;;1.00;;
85188;SDS011;75559;49.132;8.922;2024-02-26T04:33:13;1.13;;;1.02;;
85188;SDS011;75559;49.132;8.922;2024-02-26T04:35:38;1.77;;;1.08;;
85188;SDS011;75559;49.132;8.922;2024-02-26T04:38:04;0.85;;;0.80;;
85188;SDS011;75559;49.132;8.922;2024-02-26T04:40:29;1.15;;;0.95;;
85188;SDS011;75559;49.132;8.922;2024-02-26T04:42:54;0.75;;;0.75;;
85188;SDS011;75559;49.132;8.922;2024-02-26T04:45:20;1.75;;;1.15;;
85188;SDS011;75559;49.132;8.922;2024-02-26T04:47:45;2.78;;;1.52;;
85188;SDS011;75559;49.132;8.922;2024-02-26T04:50:11;2.10;;;1.35;;
85188;SDS011;75559;49.132;8.922;2024-02-26T04:52:37;1.97;;;1.53;;
85188;SDS011;75559;49.132;8.922;2024-02-26T04:55:02;4.00;;;1.52;;
85188;SDS011;75559;49.132;8.922;2024-02-26T04:57:28;2.13;;;1.70;;
85188;SDS011;75559;49.132;8.922;2024-02-26T04:59:53;3.85;;;1.42;;
85188;SDS011;75559;49.132;8.922;2024-02-26T05:02:19;1.60;;;1.50;;
85188;SDS011;75559;49.132;8.922;2024-02-26T05:04:44;4.00;;;2.00;;
85188;SDS011;75559;49.132;8.922;2024-02-26T05:07:10;3.50;;;2.58;;
85188;SDS011;75559;49.132;8.922;2024-02-26T05:09:35;3.95;;;2.60;;
85188;SDS011;75559;49.132;8.922;2024-02-26T05:12:00;3.83;;;2.40;;
85188;SDS011;75559;49.132;8.922;2024-02-26T05:14:26;3.97;;;2.28;;
85188;SDS011;75559;49.132;8.922;2024-02-26T05:16:51;3.45;;;2.35;;
85188;SDS011;75559;49.132;8.922;2024-02-26T05:19:17;7.43;;;3.35;;
85188;SDS011;75559;49.132;8.922;2024-02-26T05:21:42;5.22;;;3.38;;
85188;SDS011;75559;49.132;8.922;2024-02-26T05:24:09;5.82;;;2.72;;
85188;SDS011;75559;49.132;8.922;2024-02-26T05:26:35;6.78;;;3.25;;
85188;SDS011;75559;49.132;8.922;2024-02-26T05:29:00;6.07;;;3.75;;
85188;SDS011;75559;49.132;8.922;2024-02-26T05:31:26;5.32;;;2.85;;
85188;SDS011;75559;49.132;8.922;2024-02-26T05:33:52;4.43;;;2.28;;
85188;SDS011;75559;49.132;8.922;2024-02-26T05:36:17;3.35;;;2.70;;
85188;SDS011;75559;49.132;8.922;2024-02-26T05:38:44;3.05;;;2.30;;
85188;SDS011;75559;49.132;8.922;2024-02-26T05:41:11;4.00;;;2.42;;
85188;SDS011;75559;49.132;8.922;2024-02-26T05:43:37;5.40;;;2.63;;
85188;SDS011;75559;49.132;8.922;2024-02-26T05:46:02;7.20;;;3.22;;
85188;SDS011;75559;49.132;8.922;2024-02-26T05:48:28;4.03;;;2.35;;
85188;SDS011;75559;49.132;8.922;2024-02-26T05:50:53;3.70;;;1.97;;
85188;SDS011;75559;49.132;8.922;2024-02-26T05:53:18;3.58;;;2.80;;
85188;SDS011;75559;49.132;8.922;2024-02-26T05:55:44;5.73;;;3.03;;
85188;SDS011;75559;49.132;8.922;2024-02-26T05:58:09;5.65;;;3.30;;
85188;SDS011;75559;49.132;8.922;2024-02-26T06:00:34;6.93;;;2.70;;
85188;SDS011;75559;49.132;8.922;2024-02-26T06:03:00;4.32;;;3.10;;
85188;SDS011;75559;49.132;8.922;2024-02-26T06:05:25;4.88;;;3.22;;
85188;SDS011;75559;49.132;8.922;2024-02-26T06:07:51;6.25;;;3.45;;
85188;SDS011;75559;49.132;8.922;2024-02-26T06:10:16;4.32;;;3.47;;
85188;SDS011;75559;49.132;8.922;2024-02-26T06:12:46;4.45;;;3.03;;
85188;SDS011;75559;49.132;8.922;2024-02-26T06:15:11;4.82;;;3.05;;
85188;SDS011;75559;49.132;8.922;2024-02-26T06:17:37;6.97;;;2.88;;
85188;SDS011;75559;49.132;8.922;2024-02-26T06:20:02;5.20;;;2.83;;
85188;SDS011;75559;49.132;8.922;2024-02-26T06:22:30;6.63;;;3.08;;
85188;SDS011;75559;49.132;8.922;2024-02-26T06:24:55;4.75;;;3.03;;
85188;SDS011;75559;49.132;8.922;2024-02-26T06:27:20;6.40;;;3.30;;
85188;SDS011;75559;49.132;8.922;2024-02-26T06:29:46;5.72;;;3.22;;
85188;SDS011;75559;49.132;8.922;2024-02-26T06:32:12;4.80;;;2.63;;
85188;SDS011;75559;49.132;8.922;2024-02-26T06:34:39;6.00;;;3.78;;
85188;SDS011;75559;49.132;8.922;2024-02-26T06:37:05;7.55;;;3.03;;
85188;SDS011;75559;49.132;8.922;2024-02-26T06:39:31;5.85;;;3.35;;
85188;SDS011;75559;49.132;8.922;2024-02-26T06:41:56;5.63;;;3.33;;
85188;SDS011;75559;49.132;8.922;2024-02-26T06:44:26;6.05;;;3.35;;
85188;SDS011;75559;49.132;8.922;2024-02-26T06:46:56;6.28;;;3.35;;
85188;SDS011;75559;49.132;8.922;2024-02-26T06:49:25;4.25;;;2.85;;
85188;SDS011;75559;49.132;8.922;2024-02-26T06:51:51;7.78;;;3.58;;
85188;SDS011;75559;49.132;8.922;2024-02-26T06:54:16;4.47;;;2.80;;
85188;SDS011;75559;49.132;8.922;2024-02-26T06:56:42;3.65;;;2.78;;
85188;SDS011;75559;49.132;8.922;2024-02-26T06:59:07;5.55;;;3.60;;
85188;SDS011;75559;49.132;8.922;2024-02-26T07:01:32;6.30;;;4.13;;
85188;SDS011;75559;49.132;8.922;2024-02-26T07:03:58;5.63;;;3.67;;
85188;SDS011;75559;49.132;8.922;2024-02-26T07:06:23;5.75;;;3.28;;
85188;SDS011;75559;49.132;8.922;2024-02-26T07:08:49;5.05;;;3.58;;
85188;SDS011;75559;49.132;8.922;2024-02-26T07:11:14;4.97;;;3.45;;
85188;SDS011;75559;49.132;8.922;2024-02-26T07:13:39;12.85;;;4.55;;
85188;SDS011;75559;49.132;8.922;2024-02-26T07:16:05;11.00;;;4.18;;
85188;SDS011;75559;49.132;8.922;2024-02-26T07:18:30;9.32;;;4.30;;
85188;SDS011;75559;49.132;8.922;2024-02-26T07:20:56;8.35;;;3.72;;
85188;SDS011;75559;49.132;8.922;2024-02-26T07:23:21;5.82;;;3.72;;
85188;SDS011;75559;49.132;8.922;2024-02-26T07:25:47;4.25;;;3.25;;
85188;SDS011;75559;49.132;8.922;2024-02-26T07:28:14;6.72;;;3.53;;
85188;SDS011;75559;49.132;8.922;2024-02-26T07:30:39;7.25;;;4.78;;
85188;SDS011;75559;49.132;8.922;2024-02-26T07:33:05;10.73;;;4.78;;
85188;SDS011;75559;49.132;8.922;2024-02-26T07:35:30;6.43;;;3.80;;
85188;SDS011;75559;49.132;8.922;2024-02-26T07:37:57;10.85;;;3.70;;
85188;SDS011;75559;49.132;8.922;2024-02-26T07:40:22;6.65;;;3.65;;
85188;SDS011;75559;49.132;8.922;2024-02-26T07:42:50;9.98;;;4.88;;
85188;SDS011;75559;49.132;8.922;2024-02-26T07:45:16;8.93;;;4.22;;
85188;SDS011;75559;49.132;8.922;2024-02-26T07:47:43;9.50;;;3.85;;
85188;SDS011;75559;49.132;8.922;2024-02-26T07:50:08;5.93;;;4.13;;
85188;SDS011;75559;49.132;8.922;2024-02-26T07:52:34;5.90;;;3.88;;
85188;SDS011;75559;49.132;8.922;2024-02-26T07:54:59;7.38;;;3.70;;
85188;SDS011;75559;49.132;8.922;2024-02-26T07:57:25;8.50;;;3.60;;
85188;SDS011;75559;49.132;8.922;2024-02-26T07:59:50;4.93;;;2.93;;
85188;SDS011;75559;49.132;8.922;2024-02-26T08:02:16;8.18;;;3.42;;
85188;SDS011;75559;49.132;8.922;2024-02-26T08:04:41;3.17;;;2.25;;
85188;SDS011;75559;49.132;8.922;2024-02-26T08:07:07;2.60;;;2.35;;
85188;SDS011;75559;49.132;8.922;2024-02-26T08:09:32;4.65;;;2.55;;
85188;SDS011;75559;49.132;8.922;2024-02-26T08:11:58;3.60;;;2.35;;
85188;SDS011;75559;49.132;8.922;2024-02-26T08:14:24;5.72;;;3.00;;
85188;SDS011;75559;49.132;8.922;2024-02-26T08:16:52;4.43;;;2.70;;
85188;SDS011;75559;49.132;8.922;2024-02-26T08:19:17;4.68;;;2.90;;
85188;SDS011;75559;49.132;8.922;2024-02-26T08:21:43;4.47;;;2.42;;
85188;SDS011;75559;49.132;8.922;2024-02-26T08:24:08;5.22;;;2.60;;
85188;SDS011;75559;49.132;8.922;2024-02-26T08:26:33;4.40;;;2.70;;
85188;SDS011;75559;49.132;8.922;2024-02-26T08:28:59;4.57;;;2.88;;
85188;SDS011;75559;49.132;8.922;2024-02-26T08:31:24;6.73;;;2.90;;
85188;SDS011;75559;49.132;8.922;2024-02-26T08:33:50;3.75;;;2.50;;
85188;SDS011;75559;49.132;8.922;2024-02-26T08:36:15;5.38;;;3.33;;
85188;SDS011;75559;49.132;8.922;2024-02-26T08:38:41;3.95;;;2.90;;
85188;SDS011;75559;49.132;8.922;2024-02-26T08:41:06;5.82;;;3.40;;
85188;SDS011;75559;49.132;8.922;2024-02-26T08:43:31;6.05;;;3.38;;
85188;SDS011;75559;49.132;8.922;2024-02-26T08:45:57;6.73;;;3.40;;
85188;SDS011;75559;49.132;8.922;2024-02-26T08:48:22;5.53;;;3.05;;
85188;SDS011;75559;49.132;8.922;2024-02-26T08:50:48;4.72;;;3.30;;
85188;SDS011;75559;49.132;8.922;2024-02-26T08:53:13;5.35;;;3.00;;
85188;SDS011;75559;49.132;8.922;2024-02-26T08:55:39;5.38;;;3.25;;
85188;SDS011;75559;49.132;8.922;2024-02-26T08:58:04;6.73;;;4.13;;
85188;SDS011;75559;49.132;8.922;2024-02-26T09:00:29;7.10;;;3.42;;
85188;SDS011;75559;49.132;8.922;2024-02-26T09:02:55;6.07;;;3.30;;
85188;SDS011;75559;49.132;8.922;2024-02-26T09:05:21;5.25;;;3.42;;
85188;SDS011;75559;49.132;8.922;2024-02-26T09:07:46;5.30;;;3.60;;
85188;SDS011;75559;49.132;8.922;2024-02-26T09:10:12;7.53;;;4.00;;
85188;SDS011;75559;49.132;8.922;2024-02-26T09:12:37;3.50;;;2.58;;
85188;SDS011;75559;49.132;8.922;2024-02-26T09:15:06;4.80;;;3.40;;
85188;SDS011;75559;49.132;8.922;2024-02-26T09:17:32;6.20;;;2.78;;
85188;SDS011;75559;49.132;8.922;2024-02-26T09:19:58;4.55;;;2.63;;
85188;SDS011;75559;49.132;8.922;2024-02-26T09:22:23;5.22;;;3.75;;
85188;SDS011;75559;49.132;8.922;2024-02-26T09:24:48;5.20;;;2.42;;
85188;SDS011;75559;49.132;8.922;2024-02-26T09:27:16;5.95;;;2.85;;
85188;SDS011;75559;49.132;8.922;2024-02-26T09:29:42;4.88;;;2.50;;
85188;SDS011;75559;49.132;8.922;2024-02-26T09:32:07;4.55;;;2.83;;
85188;SDS011;75559;49.132;8.922;2024-02-26T09:34:33;4.93;;;3.20;;
85188;SDS011;75559;49.132;8.922;2024-02-26T09:36:59;4.20;;;2.75;;
85188;SDS011;75559;49.132;8.922;2024-02-26T09:39:25;4.88;;;3.17;;
85188;SDS011;75559;49.132;8.922;2024-02-26T09:41:50;4.65;;;2.70;;
85188;SDS011;75559;49.132;8.922;2024-02-26T09:44:18;5.55;;;2.97;;
85188;SDS011;75559;49.132;8.922;2024-02-26T09:46:45;4.93;;;2.95;;
85188;SDS011;75559;49.132;8.922;2024-02-26T09:49:18;5.80;;;2.80;;
85188;SDS011;75559;49.132;8.922;2024-02-26T09:51:48;5.15;;;3.55;;
85188;SDS011;75559;49.132;8.922;2024-02-26T09:54:15;3.90;;;2.75;;
85188;SDS011;75559;49.132;8.922;2024-02-26T09:56:42;5.30;;;3.33;;
85188;SDS011;75559;49.132;8.922;2024-02-26T09:59:10;3.53;;;2.85;;
85188;SDS011;75559;49.132;8.922;2024-02-26T10:01:38;12.82;;;3.45;;
85188;SDS011;75559;49.132;8.922;2024-02-26T10:04:07;4.60;;;2.80;;
85188;SDS011;75559;49.132;8.922;2024-02-26T10:06:33;7.88;;;3.70;;
85188;SDS011;75559;49.132;8.922;2024-02-26T10:08:59;6.15;;;3.65;;
85188;SDS011;75559;49.132;8.922;2024-02-26T10:11:25;5.07;;;2.97;;
85188;SDS011;75559;49.132;8.922;2024-02-26T10:13:51;3.95;;;2.83;;
85188;SDS011;75559;49.132;8.922;2024-02-26T10:16:17;4.40;;;2.90;;
85188;SDS011;75559;49.132;8.922;2024-02-26T10:21:12;5.60;;;2.97;;
85188;SDS011;75559;49.132;8.922;2024-02-26T10:23:38;4.68;;;3.25;;
85188;SDS011;75559;49.132;8.922;2024-02-26T10:26:04;4.07;;;3.05;;
85188;SDS011;75559;49.132;8.922;2024-02-26T10:28:30;5.10;;;3.47;;
85188;SDS011;75559;49.132;8.922;2024-02-26T10:30:55;4.30;;;2.65;;
85188;SDS011;75559;49.132;8.922;2024-02-26T10:33:21;3.75;;;2.70;;
85188;SDS011;75559;49.132;8.922;2024-02-26T10:35:47;4.75;;;3.13;;
85188;SDS011;75559;49.132;8.922;2024-02-26T10:38:12;4.15;;;2.90;;
85188;SDS011;75559;49.132;8.922;2024-02-26T10:40:38;4.07;;;2.38;;
85188;SDS011;75559;49.132;8.922;2024-02-26T10:43:04;4.07;;;2.72;;
85188;SDS011;75559;49.132;8.922;2024-02-26T10:45:29;5.30;;;2.80;;
85188;SDS011;75559;49.132;8.922;2024-02-26T10:47:54;3.27;;;2.43;;
85188;SDS011;75559;49.132;8.922;2024-02-26T10:50:20;6.68;;;3.15;;
85188;SDS011;75559;49.132;8.922;2024-02-26T10:52:45;4.25;;;2.75;;
85188;SDS011;75559;49.132;8.922;2024-02-26T10:55:19;4.72;;;2.35;;
85188;SDS011;75559;49.132;8.922;2024-02-26T10:57:47;4.40;;;2.90;;
85188;SDS011;75559;49.132;8.922;2024-02-26T11:00:15;3.42;;;2.60;;
85188;SDS011;75559;49.132;8.922;2024-02-26T11:02:41;6.43;;;2.65;;
85188;SDS011;75559;49.132;8.922;2024-02-26T11:05:09;5.40;;;2.60;;
85188;SDS011;75559;49.132;8.922;2024-02-26T11:07:36;5.63;;;2.65;;
85188;SDS011;75559;49.132;8.922;2024-02-26T11:10:03;3.13;;;2.60;;
85188;SDS011;75559;49.132;8.922;2024-02-26T11:12:30;4.15;;;2.20;;
85188;SDS011;75559;49.132;8.922;2024-02-26T11:14:57;7.43;;;2.78;;
85188;SDS011;75559;49.132;8.922;2024-02-26T11:17:27;4.10;;;2.65;;
85188;SDS011;75559;49.132;8.922;2024-02-26T11:19:57;3.50;;;2.10;;
85188;SDS011;75559;49.132;8.922;2024-02-26T11:22:24;4.05;;;2.40;;
85188;SDS011;75559;49.132;8.922;2024-02-26T11:24:51;2.95;;;2.13;;
85188;SDS011;75559;49.132;8.922;2024-02-26T11:27:19;3.42;;;2.30;;
85188;SDS011;75559;49.132;8.922;2024-02-26T11:29:50;4.70;;;2.25;;
85188;SDS011;75559;49.132;8.922;2024-02-26T11:32:17;3.05;;;2.15;;
85188;SDS011;75559;49.132;8.922;2024-02-26T11:34:43;3.47;;;2.28;;
85188;SDS011;75559;49.132;8.922;2024-02-26T11:37:16;2.95;;;2.17;;
85188;SDS011;75559;49.132;8.922;2024-02-26T11:39:42;2.75;;;2.15;;
85188;SDS011;75559;49.132;8.922;2024-02-26T11:42:10;4.63;;;2.85;;
85188;SDS011;75559;49.132;8.922;2024-02-26T11:44:39;2.80;;;1.98;;
85188;SDS011;75559;49.132;8.922;2024-02-26T11:47:10;3.42;;;2.63;;
85188;SDS011;75559;49.132;8.922;2024-02-26T11:49:35;10.02;;;5.90;;
85188;SDS011;75559;49.132;8.922;2024-02-26T11:52:02;8.98;;;4.25;;
85188;SDS011;75559;49.132;8.922;2024-02-26T11:59:53;3.03;;;2.45;;
85188;SDS011;75559;49.132;8.922;2024-02-26T12:05:05;3.35;;;2.35;;
85188;SDS011;75559;49.132;8.922;2024-02-26T12:07:34;3.00;;;1.77;;
85188;SDS011;75559;49.132;8.922;2024-02-26T12:12:42;3.90;;;2.42;;
85188;SDS011;75559;49.132;8.922;2024-02-26T12:15:08;3.65;;;2.22;;
85188;SDS011;75559;49.132;8.922;2024-02-26T12:17:33;3.55;;;2.00;;
85188;SDS011;75559;49.132;8.922;2024-02-26T12:20:10;4.03;;;2.00;;
85188;SDS011;75559;49.132;8.922;2024-02-26T12:22:37;3.83;;;2.00;;
85188;SDS011;75559;49.132;8.922;2024-02-26T12:25:05;3.08;;;2.00;;
85188;SDS011;75559;49.132;8.922;2024-02-26T12:27:31;2.75;;;2.30;;
85188;SDS011;75559;49.132;8.922;2024-02-26T12:29:57;2.80;;;1.80;;
85188;SDS011;75559;49.132;8.922;2024-02-26T12:32:22;3.22;;;2.03;;
85188;SDS011;75559;49.132;8.922;2024-02-26T12:34:48;2.38;;;1.75;;
85188;SDS011;75559;49.132;8.922;2024-02-26T12:37:15;4.93;;;2.22;;
85188;SDS011;75559;49.132;8.922;2024-02-26T12:39:41;4.18;;;2.20;;
85188;SDS011;75559;49.132;8.922;2024-02-26T12:42:06;4.25;;;1.75;;
85188;SDS011;75559;49.132;8.922;2024-02-26T12:44:32;3.35;;;1.95;;
85188;SDS011;75559;49.132;8.922;2024-02-26T12:47:00;4.78;;;1.98;;
85188;SDS011;75559;49.132;8.922;2024-02-26T12:49:29;3.13;;;1.88;;
85188;SDS011;75559;49.132;8.922;2024-02-26T12:51:55;3.20;;;1.92;;
85188;SDS011;75559;49.132;8.922;2024-02-26T12:54:35;3.42;;;1.95;;
85188;SDS011;75559;49.132;8.922;2024-02-26T12:57:04;3.63;;;1.98;;
85188;SDS011;75559;49.132;8.922;2024-02-26T12:59:31;2.28;;;1.50;;
85188;SDS011;75559;49.132;8.922;2024-02-26T13:01:58;1.95;;;1.35;;
85188;SDS011;75559;49.132;8.922;2024-02-26T13:04:23;10.20;;;4.82;;
85188;SDS011;75559;49.132;8.922;2024-02-26T13:06:50;2.83;;;1.92;;
85188;SDS011;75559;49.132;8.922;2024-02-26T13:09:16;3.83;;;1.75;;
85188;SDS011;75559;49.132;8.922;2024-02-26T13:11:43;4.70;;;1.55;;
85188;SDS011;75559;49.132;8.922;2024-02-26T13:14:19;2.65;;;1.35;;
85188;SDS011;75559;49.132;8.922;2024-02-26T13:17:00;2.20;;;1.55;;
85188;SDS011;75559;49.132;8.922;2024-02-26T13:19:26;2.63;;;1.50;;
85188;SDS011;75559;49.132;8.922;2024-02-26T13:21:53;2.38;;;1.20;;
85188;SDS011;75559;49.132;8.922;2024-02-26T13:24:19;2.38;;;1.13;;
85188;SDS011;75559;49.132;8.922;2024-02-26T13:26:45;1.75;;;1.15;;
85188;SDS011;75559;49.132;8.922;2024-02-26T13:29:17;1.48;;;1.20;;
85188;SDS011;75559;49.132;8.922;2024-02-26T13:31:43;1.75;;;1.30;;
85188;SDS011;75559;49.132;8.922;2024-02-26T13:34:08;1.02;;;0.90;;
85188;SDS011;75559;49.132;8.922;2024-02-26T13:36:34;1.50;;;0.93;;
85188;SDS011;75559;49.132;8.922;2024-02-26T13:38:59;2.83;;;1.52;;
85188;SDS011;75559;49.132;8.922;2024-02-26T13:41:26;2.75;;;1.25;;
85188;SDS011;75559;49.132;8.922;2024-02-26T13:43:52;2.05;;;1.30;;
85188;SDS011;75559;49.132;8.922;2024-02-26T13:46:18;1.23;;;1.13;;
85188;SDS011;75559;49.132;8.922;2024-02-26T13:48:43;1.30;;;1.10;;
85188;SDS011;75559;49.132;8.922;2024-02-26T13:51:09;0.82;;;0.80;;
85188;SDS011;75559;49.132;8.922;2024-02-26T13:53:34;0.95;;;0.80;;
85188;SDS011;75559;49.132;8.922;2024-02-26T13:56:00;2.75;;;1.13;;
85188;SDS011;75559;49.132;8.922;2024-02-26T13:58:26;1.90;;;1.10;;
85188;SDS011;75559;49.132;8.922;2024-02-26T14:00:55;2.33;;;0.98;;
85188;SDS011;75559;49.132;8.922;2024-02-26T14:03:21;3.15;;;1.20;;
85188;SDS011;75559;49.132;8.922;2024-02-26T14:05:46;1.85;;;1.08;;
85188;SDS011;75559;49.132;8.922;2024-02-26T14:08:12;2.67;;;1.35;;
85188;SDS011;75559;49.132;8.922;2024-02-26T14:10:37;1.17;;;0.82;;
85188;SDS011;75559;49.132;8.922;2024-02-26T14:13:03;1.25;;;1.00;;
85188;SDS011;75559;49.132;8.922;2024-02-26T14:15:29;1.40;;;0.95;;
85188;SDS011;75559;49.132;8.922;2024-02-26T14:17:54;4.97;;;1.05;;
85188;SDS011;75559;49.132;8.922;2024-02-26T14:20:21;3.80;;;1.33;;
85188;SDS011;75559;49.132;8.922;2024-02-26T14:22:50;2.00;;;1.30;;
85188;SDS011;75559;49.132;8.922;2024-02-26T14:25:22;0.93;;;0.75;;
85188;SDS011;75559;49.132;8.922;2024-02-26T14:27:47;1.63;;;1.17;;
85188;SDS011;75559;49.132;8.922;2024-02-26T14:30:13;1.20;;;1.10;;
85188;SDS011;75559;49.132;8.922;2024-02-26T14:32:39;1.75;;;0.90;;
85188;SDS011;75559;49.132;8.922;2024-02-26T14:35:05;2.22;;;1.10;;
85188;SDS011;75559;49.132;8.922;2024-02-26T14:37:32;3.03;;;1.30;;
85188;SDS011;75559;49.132;8.922;2024-02-26T14:39:57;1.70;;;1.00;;
85188;SDS011;75559;49.132;8.922;2024-02-26T14:42:23;0.95;;;0.80;;
85188;SDS011;75559;49.132;8.922;2024-02-26T14:44:49;1.90;;;1.00;;
85188;SDS011;75559;49.132;8.922;2024-02-26T14:47:15;2.85;;;0.98;;
85188;SDS011;75559;49.132;8.922;2024-02-26T14:49:41;1.50;;;0.90;;
85188;SDS011;75559;49.132;8.922;2024-02-26T14:52:06;2.42;;;0.90;;
85188;SDS011;75559;49.132;8.922;2024-02-26T14:54:32;1.23;;;0.80;;